Time;durP1;ratioP1;P1;durP2;ratioP2;P2;SDS_P1;SDS_P2;PMS_P1;PMS_P2;Temp;Humidity;BMP_temperature;BMP_pressure;BME280_temperature;BME280_humidity;BME280_pressure;Samples;Min_cycle;Max_cycle;Signal;HPM_P1;HPM_P2
2022/10/13 14:31:14;;;;;;;10.48;4.95;;;;;;;15.18;100.00;99584.70;4444219;80;83028;-84
2022/10/13 14:37:17;;;;;;;7.30;5.23;;;;;;;17.10;93.34;99575.98;4334554;81;37317;-85
2022/10/13 14:43:18;;;;;;;9.18;4.83;;;;;;;16.30;89.67;99578.80;4339210;81;28534;-84
2022/10/13 14:49:21;;;;;;;8.55;5.00;;;;;;;16.06;90.38;99591.83;4284518;82;28526;-84
2022/10/13 14:55:36;;;;;;;9.38;4.30;;;;;;;15.98;91.73;99587.69;4278409;82;28601;-86
2022/10/13 15:01:40;;;;;;;10.08;4.83;;;;;;;16.08;88.25;99583.45;4259054;82;28544;-85
2022/10/13 15:07:41;;;;;;;10.80;5.30;;;;;;;16.02;87.26;99580.67;4311912;82;28538;-84
2022/10/13 15:13:43;;;;;;;8.63;5.37;;;;;;;15.84;89.10;99577.73;4316851;81;28499;-84
2022/10/13 15:19:45;;;;;;;11.10;5.30;;;;;;;15.85;89.93;99578.55;4333782;82;28529;-85
2022/10/13 15:25:57;;;;;;;11.35;5.80;;;;;;;15.82;95.70;99579.04;4220561;83;28515;-87
2022/10/13 15:32:17;;;;;;;9.88;5.42;;;;;;;15.72;98.40;99575.16;4230659;83;28530;-83
2022/10/13 15:38:22;;;;;;;10.10;5.25;;;;;;;15.70;98.86;99575.13;4225182;84;28537;-84
2022/10/13 15:44:25;;;;;;;12.95;5.17;;;;;;;15.56;100.00;99571.41;4188420;83;28568;-87
2022/10/13 15:50:31;;;;;;;14.15;5.87;;;;;;;15.72;100.00;99568.38;4297033;82;28504;-84
2022/10/13 15:56:31;;;;;;;13.18;5.72;;;;;;;15.70;98.78;99569.14;4278718;82;28580;-83
2022/10/13 16:02:35;;;;;;;13.53;6.12;;;;;;;15.77;97.11;99567.59;4296101;82;28492;-82
2022/10/13 16:08:43;;;;;;;12.80;6.12;;;;;;;15.79;100.00;99570.90;4241783;83;28581;-83
2022/10/13 16:14:44;;;;;;;10.95;5.20;;;;;;;15.74;100.00;99568.11;4270994;83;28490;-82
2022/10/13 16:20:48;;;;;;;13.40;5.83;;;;;;;15.32;100.00;99567.58;4257567;83;28518;-83
2022/10/13 16:26:55;;;;;;;14.00;6.42;;;;;;;14.98;100.00;99564.92;4247114;83;28557;-83
2022/10/13 16:33:01;;;;;;;13.13;5.95;;;;;;;14.80;100.00;99559.76;4179129;83;28539;-84
2022/10/13 16:39:01;;;;;;;15.00;6.70;;;;;;;14.56;100.00;99563.95;4247499;83;28603;-83
2022/10/13 16:45:03;;;;;;;14.20;7.87;;;;;;;14.49;100.00;99566.27;4266312;83;28538;-83
2022/10/13 16:51:08;;;;;;;16.75;8.23;;;;;;;14.29;100.00;99565.91;4179070;84;28581;-83
2022/10/13 16:57:09;;;;;;;14.78;7.40;;;;;;;14.10;100.00;99563.39;4218586;83;28539;-85
2022/10/13 17:03:11;;;;;;;12.75;7.72;;;;;;;13.95;100.00;99562.56;4215230;83;28544;-85
2022/10/13 17:09:12;;;;;;;13.70;7.72;;;;;;;13.76;100.00;99568.69;4254624;83;28588;-86
2022/10/13 17:15:15;;;;;;;18.07;9.43;;;;;;;13.56;100.00;99569.91;4324561;81;28609;-84
2022/10/13 17:21:20;;;;;;;14.70;8.35;;;;;;;13.54;100.00;99566.63;4317262;81;28585;-83
2022/10/13 17:27:22;;;;;;;21.97;9.67;;;;;;;13.46;100.00;99566.98;4316607;81;28508;-82
2022/10/13 17:33:23;;;;;;;17.23;7.90;;;;;;;13.47;100.00;99564.57;4308230;81;28570;-85
2022/10/13 17:39:25;;;;;;;14.65;7.20;;;;;;;13.65;100.00;99560.92;4321857;81;28517;-83
2022/10/13 17:45:29;;;;;;;19.77;9.65;;;;;;;13.69;100.00;99558.53;4327207;81;28500;-84
2022/10/13 17:51:31;;;;;;;16.85;8.05;;;;;;;13.75;100.00;99554.38;4296221;82;28571;-86
2022/10/13 17:57:32;;;;;;;17.85;8.85;;;;;;;13.57;100.00;99560.73;4263074;82;28575;-83
2022/10/13 18:03:37;;;;;;;15.20;8.98;;;;;;;13.35;100.00;99556.48;4276434;82;28578;-84
2022/10/13 18:09:39;;;;;;;16.48;9.05;;;;;;;13.28;100.00;99555.25;4286369;81;28485;-87
2022/10/13 18:15:41;;;;;;;16.07;8.35;;;;;;;13.37;100.00;99555.16;4277607;82;28559;-86
2022/10/13 18:21:42;;;;;;;26.15;12.88;;;;;;;13.41;100.00;99552.00;4259697;82;28530;-88
2022/10/13 18:27:43;;;;;;;27.85;12.80;;;;;;;13.33;100.00;99547.25;4329990;81;28610;-86
2022/10/13 18:33:46;;;;;;;16.70;9.08;;;;;;;13.55;100.00;99549.36;4303128;80;28589;-87
2022/10/13 18:39:48;;;;;;;21.10;8.73;;;;;;;12.99;100.00;99544.34;4323481;81;28582;-89
2022/10/13 18:45:51;;;;;;;30.30;16.48;;;;;;;12.93;100.00;99539.36;4313478;81;28502;-86
2022/10/13 18:51:53;;;;;;;16.07;9.68;;;;;;;12.84;100.00;99543.45;4326639;81;28503;-84
2022/10/13 18:57:56;;;;;;;30.60;13.55;;;;;;;12.65;100.00;99540.02;4233960;82;28582;-82
2022/10/13 19:04:00;;;;;;;21.02;11.28;;;;;;;12.55;100.00;99542.78;4256352;82;28472;-82
2022/10/13 19:10:02;;;;;;;25.90;13.15;;;;;;;12.39;100.00;99551.52;4303814;81;28494;-84
2022/10/13 19:16:04;;;;;;;21.73;11.22;;;;;;;12.39;100.00;99538.05;4248995;82;29018;-85
2022/10/13 19:22:09;;;;;;;17.77;10.20;;;;;;;12.39;100.00;99547.48;4304254;81;28554;-85
2022/10/13 19:28:13;;;;;;;21.10;10.47;;;;;;;12.20;100.00;99546.73;4297494;81;34414;-82
2022/10/13 19:34:19;;;;;;;22.77;11.85;;;;;;;12.31;100.00;99539.72;4295479;82;28596;-86
2022/10/13 19:40:21;;;;;;;24.95;12.47;;;;;;;12.12;100.00;99538.42;4289270;81;28561;-90
2022/10/13 19:46:27;;;;;;;25.75;13.15;;;;;;;12.26;100.00;99541.75;4286777;82;28500;-88
2022/10/13 19:52:31;;;;;;;25.48;12.20;;;;;;;12.03;100.00;99534.40;4289245;82;28555;-88
2022/10/13 19:58:34;;;;;;;26.70;12.98;;;;;;;11.89;100.00;99538.59;4279673;82;28499;-82
2022/10/13 20:04:38;;;;;;;26.00;14.80;;;;;;;11.77;100.00;99537.21;4279771;83;28527;-82
2022/10/13 20:10:42;;;;;;;22.22;12.63;;;;;;;11.68;100.00;99542.06;4279022;82;28496;-82
2022/10/13 20:16:46;;;;;;;29.67;14.18;;;;;;;11.56;100.00;99549.27;4277672;83;28549;-81
2022/10/13 20:22:48;;;;;;;28.75;14.70;;;;;;;11.62;100.00;99542.98;4297118;82;28531;-80
2022/10/13 20:28:51;;;;;;;25.72;13.98;;;;;;;11.43;100.00;99536.26;4317061;80;28485;-80
2022/10/13 20:34:54;;;;;;;29.80;14.98;;;;;;;11.32;100.00;99540.20;4325037;81;28480;-80
2022/10/13 20:41:07;;;;;;;30.08;15.20;;;;;;;11.15;100.00;99533.54;4328021;81;28474;-80
2022/10/13 20:47:08;;;;;;;27.90;15.23;;;;;;;11.20;100.00;99530.72;4289023;82;28536;-80
2022/10/13 20:53:14;;;;;;;31.55;15.72;;;;;;;11.21;100.00;99525.63;4266050;82;28579;-82
2022/10/13 20:59:17;;;;;;;30.95;15.85;;;;;;;11.09;100.00;99528.23;4250624;82;28574;-81
2022/10/13 21:05:19;;;;;;;30.75;15.10;;;;;;;10.71;100.00;99522.77;4337440;81;28467;-82
2022/10/13 21:11:22;;;;;;;30.70;14.50;;;;;;;10.90;100.00;99517.97;4305069;81;28543;-81
2022/10/13 21:17:23;;;;;;;28.95;15.20;;;;;;;10.82;100.00;99524.44;4304702;81;28535;-82
2022/10/13 21:23:26;;;;;;;31.90;16.35;;;;;;;10.85;100.00;99527.51;4304152;81;28569;-81
2022/10/13 21:29:28;;;;;;;28.23;15.48;;;;;;;10.71;100.00;99523.30;4293622;81;28546;-80
2022/10/13 21:35:30;;;;;;;32.88;16.85;;;;;;;10.37;100.00;99522.72;4277454;82;28515;-81
2022/10/13 21:41:34;;;;;;;26.62;15.23;;;;;;;10.84;100.00;99525.87;4276759;82;28523;-81
2022/10/13 21:47:37;;;;;;;27.65;15.28;;;;;;;10.73;100.00;99521.21;4278376;82;28585;-79
2022/10/13 21:53:40;;;;;;;27.45;15.63;;;;;;;10.53;100.00;99522.20;4277655;82;28545;-80
2022/10/13 21:59:42;;;;;;;30.15;16.10;;;;;;;10.52;100.00;99516.52;4278831;82;28544;-80
2022/10/13 22:05:44;;;;;;;31.37;16.27;;;;;;;10.23;100.00;99521.98;4279663;82;28460;-80
2022/10/13 22:11:45;;;;;;;35.35;17.85;;;;;;;10.42;100.00;99525.08;4276601;82;28539;-79
2022/10/13 22:17:47;;;;;;;33.45;18.45;;;;;;;10.55;100.00;99522.80;4276050;82;28593;-79
2022/10/13 22:23:48;;;;;;;30.62;17.37;;;;;;;10.99;100.00;99517.98;4275608;82;28523;-80
2022/10/13 22:29:50;;;;;;;31.82;16.80;;;;;;;11.41;100.00;99526.23;4262138;82;28515;-80
2022/10/13 22:35:52;;;;;;;31.37;17.67;;;;;;;11.66;100.00;99512.36;4121607;85;28511;-79
2022/10/13 22:41:55;;;;;;;28.77;17.12;;;;;;;11.68;100.00;99512.44;4117364;85;28526;-80
2022/10/13 22:47:56;;;;;;;27.10;17.07;;;;;;;11.69;100.00;99507.89;4115333;85;28588;-81
2022/10/13 22:54:02;;;;;;;29.05;16.20;;;;;;;11.66;100.00;99514.55;4170835;84;28578;-81
2022/10/13 23:00:05;;;;;;;31.68;17.32;;;;;;;11.77;100.00;99515.66;4117408;85;28522;-79
2022/10/13 23:06:11;;;;;;;30.30;16.80;;;;;;;11.79;100.00;99516.25;4169040;84;28535;-81
2022/10/13 23:12:13;;;;;;;31.25;17.07;;;;;;;11.87;100.00;99511.06;4253875;82;28602;-80
2022/10/13 23:18:16;;;;;;;33.40;18.10;;;;;;;12.12;100.00;99507.42;4298813;82;28552;-80
2022/10/13 23:24:18;;;;;;;29.92;16.95;;;;;;;12.21;100.00;99500.66;4296737;81;28526;-80
2022/10/13 23:30:19;;;;;;;30.37;17.35;;;;;;;11.88;100.00;99491.16;4331029;80;28492;-79
2022/10/13 23:36:25;;;;;;;37.25;19.17;;;;;;;11.44;100.00;99484.56;4370289;81;28553;-80
2022/10/13 23:42:28;;;;;;;31.05;17.95;;;;;;;11.15;100.00;99497.20;4350993;81;28522;-79
2022/10/13 23:48:30;;;;;;;34.58;18.98;;;;;;;11.30;100.00;99483.37;4350059;81;28521;-80
2022/10/13 23:54:32;;;;;;;29.45;17.67;;;;;;;11.05;100.00;99484.80;4354742;80;28596;-79
